Time,TemperatureF,DewpointF,PressureIn,WindDirection,WindDirectionDegrees,WindSpeedMPH,WindSpeedGustMPH,Humidity,HourlyPrecipIn,Conditions,Clouds,dailyrainin,SoftwareType,DateUTC
2013-04-19 00:11:00,55.0,51.0,30.26,South,170,9.0,-999.0,84,-99.99,,,-99.99,,2013-04-19 00:11:00,
2013-04-19 00:21:00,55.0,51.0,30.26,South,170,9.0,-999.0,84,-99.99,,,-99.99,,2013-04-19 00:21:00,
2013-04-19 00:31:00,55.0,51.0,30.26,South,170,9.0,-999.0,84,-99.99,,,-99.99,,2013-04-19 00:31:00,
2013-04-19 01:11:00,56.0,51.0,30.25,South,170,9.0,-999.0,85,-99.99,,,-99.99,,2013-04-19 01:11:00,
2013-04-19 01:21:00,56.0,51.0,30.25,South,170,9.0,-999.0,85,-99.99,,,-99.99,,2013-04-19 01:21:00,
2013-04-19 01:31:00,56.0,51.0,30.25,South,170,9.0,-999.0,85,-99.99,,,-99.99,,2013-04-19 01:31:00,
2013-04-19 02:11:00,56.0,52.0,30.22,South,180,10.0,-999.0,87,-99.99,,,-99.99,,2013-04-19 02:11:00,
2013-04-19 02:21:00,56.0,52.0,30.22,South,180,10.0,-999.0,87,-99.99,,,-99.99,,2013-04-19 02:21:00,
2013-04-19 02:31:00,56.0,52.0,30.22,South,180,10.0,-999.0,87,-99.99,,,-99.99,,2013-04-19 02:31:00,
2013-04-19 03:11:00,56.0,53.0,30.19,South,180,15.0,-999.0,90,-99.99,,,-99.99,,2013-04-19 03:11:00,
2013-04-19 03:21:00,56.0,53.0,30.19,South,180,15.0,-999.0,90,-99.99,,,-99.99,,2013-04-19 03:21:00,
2013-04-19 03:32:00,56.0,53.0,30.19,South,180,15.0,-999.0,90,-99.99,,,-99.99,,2013-04-19 03:32:00,
2013-04-19 04:12:00,57.0,54.0,30.16,South,190,11.0,-999.0,92,-99.99,,,-99.99,,2013-04-19 04:12:00,
2013-04-19 04:23:00,57.0,54.0,30.16,South,190,11.0,-999.0,92,-99.99,,,-99.99,,2013-04-19 04:23:00,
2013-04-19 04:32:00,57.0,54.0,30.16,South,190,11.0,-999.0,92,-99.99,,,-99.99,,2013-04-19 04:32:00,
2013-04-19 05:11:00,57.0,55.0,30.14,South,190,14.0,-999.0,95,-99.99,,,-99.99,,2013-04-19 05:11:00,
2013-04-19 05:22:00,57.0,55.0,30.14,South,190,14.0,-999.0,95,-99.99,,,-99.99,,2013-04-19 05:22:00,
2013-04-19 05:31:00,57.0,55.0,30.14,South,190,14.0,-999.0,95,-99.99,,,-99.99,,2013-04-19 05:31:00,
2013-04-19 06:00:00,56.0,56.0,30.11,South,170,9.0,-999.0,96,-99.99,,,-99.99,,2013-04-19 06:00:00,
2013-04-19 06:11:00,56.0,56.0,30.11,South,170,9.0,-999.0,96,-99.99,,,-99.99,,2013-04-19 06:11:00,
2013-04-19 06:21:00,56.0,56.0,30.11,South,170,9.0,-999.0,96,-99.99,,,-99.99,,2013-04-19 06:21:00,
2013-04-19 06:31:00,56.0,56.0,30.11,South,170,9.0,-999.0,96,-99.99,,,-99.99,,2013-04-19 06:31:00,
2013-04-19 06:42:00,56.0,56.0,30.11,South,170,9.0,-999.0,96,-99.99,,,-99.99,,2013-04-19 06:42:00,
2013-04-19 06:52:00,56.0,56.0,30.11,South,170,9.0,-999.0,96,-99.99,,,-99.99,,2013-04-19 06:52:00,
2013-04-19 07:11:00,59.0,59.0,30.08,South,190,10.0,-999.0,97,-99.99,,,-99.99,,2013-04-19 07:11:00,
2013-04-19 07:21:00,59.0,59.0,30.08,South,190,10.0,-999.0,97,-99.99,,,-99.99,,2013-04-19 07:21:00,
2013-04-19 07:31:00,59.0,59.0,30.08,South,190,10.0,-999.0,97,-99.99,,,-99.99,,2013-04-19 07:31:00,
2013-04-19 08:00:00,58.0,57.0,30.05,South,170,14.0,-999.0,98,-99.99,,,-99.99,,2013-04-19 08:00:00,
2013-04-19 08:11:00,58.0,57.0,30.05,South,170,14.0,-999.0,98,-99.99,,,-99.99,,2013-04-19 08:11:00,
2013-04-19 08:21:00,58.0,57.0,30.05,South,170,14.0,-999.0,98,-99.99,,,-99.99,,2013-04-19 08:21:00,
2013-04-19 08:32:00,58.0,57.0,30.05,South,170,14.0,-999.0,98,-99.99,,,-99.99,,2013-04-19 08:32:00,
2013-04-19 08:41:00,58.0,57.0,30.05,South,170,14.0,-999.0,98,-99.99,,,-99.99,,2013-04-19 08:41:00,
2013-04-19 08:51:00,58.0,57.0,30.05,South,170,14.0,-999.0,98,-99.99,,,-99.99,,2013-04-19 08:51:00,
2013-04-19 09:11:00,61.0,61.0,30.04,SSW,200,11.0,-999.0,99,-99.99,,,-99.99,,2013-04-19 09:11:00,
2013-04-19 09:21:00,61.0,61.0,30.04,SSW,200,11.0,-999.0,99,-99.99,,,-99.99,,2013-04-19 09:21:00,
2013-04-19 09:32:00,61.0,61.0,30.04,SSW,200,11.0,-999.0,99,-99.99,,,-99.99,,2013-04-19 09:32:00,
2013-04-19 10:00:00,57.0,57.0,30.03,South,170,14.0,-999.0,100,-99.99,,,-99.99,,2013-04-19 10:00:00,
2013-04-19 10:13:00,57.0,57.0,30.03,South,170,14.0,-999.0,100,-99.99,,,-99.99,,2013-04-19 10:13:00,
2013-04-19 10:22:00,57.0,57.0,30.03,South,170,14.0,-999.0,100,-99.99,,,-99.99,,2013-04-19 10:22:00,
2013-04-19 10:33:00,57.0,57.0,30.03,South,170,14.0,-999.0,100,-99.99,,,-99.99,,2013-04-19 10:33:00,
2013-04-19 10:42:00,57.0,57.0,30.03,South,170,14.0,-999.0,100,-99.99,,,-99.99,,2013-04-19 10:42:00,
2013-04-19 10:52:00,57.0,57.0,30.03,South,170,14.0,-999.0,100,-99.99,,,-99.99,,2013-04-19 10:52:00,
2013-04-19 11:00:00,57.0,57.0,30.03,South,170,15.0,-999.0,100,-99.99,,,-99.99,,2013-04-19 11:00:00,
2013-04-19 11:11:00,57.0,57.0,30.03,South,170,15.0,-999.0,100,-99.99,,,-99.99,,2013-04-19 11:11:00,
2013-04-19 11:21:00,57.0,57.0,30.03,South,170,15.0,-999.0,100,-99.99,,,-99.99,,2013-04-19 11:21:00,
2013-04-19 11:32:00,57.0,57.0,30.03,South,170,15.0,-999.0,100,-99.99,,,-99.99,,2013-04-19 11:32:00,
2013-04-19 11:42:00,57.0,57.0,30.03,South,170,15.0,-999.0,100,-99.99,,,-99.99,,2013-04-19 11:42:00,
2013-04-19 11:52:00,57.0,57.0,30.03,South,170,15.0,-999.0,100,-99.99,,,-99.99,,2013-04-19 11:52:00,
2013-04-19 12:00:00,60.0,60.0,30.03,SSW,200,9.0,-999.0,99,-99.99,,,-99.99,,2013-04-19 12:00:00,
2013-04-19 12:12:00,60.0,60.0,30.03,SSW,200,9.0,-999.0,99,-99.99,,,-99.99,,2013-04-19 12:12:00,
2013-04-19 12:22:00,60.0,60.0,30.03,SSW,200,9.0,-999.0,99,-99.99,,,-99.99,,2013-04-19 12:22:00,
2013-04-19 12:32:00,60.0,60.0,30.03,SSW,200,9.0,-999.0,99,-99.99,,,-99.99,,2013-04-19 12:32:00,
2013-04-19 13:00:00,59.0,59.0,30.01,South,180,15.0,-999.0,100,-99.99,,,-99.99,,2013-04-19 13:00:00,
2013-04-19 13:11:00,59.0,59.0,30.01,South,180,15.0,-999.0,100,-99.99,,,-99.99,,2013-04-19 13:11:00,
2013-04-19 13:21:00,59.0,59.0,30.01,South,180,15.0,-999.0,100,-99.99,,,-99.99,,2013-04-19 13:21:00,
2013-04-19 13:32:00,59.0,59.0,30.01,South,180,15.0,-999.0,100,-99.99,,,-99.99,,2013-04-19 13:32:00,
2013-04-19 13:41:00,59.0,59.0,30.01,South,180,15.0,-999.0,100,-99.99,,,-99.99,,2013-04-19 13:41:00,
2013-04-19 13:52:00,59.0,59.0,30.01,South,180,15.0,-999.0,100,-99.99,,,-99.99,,2013-04-19 13:52:00,
2013-04-19 14:11:00,64.0,63.0,30.00,SSW,200,20.0,-999.0,98,-99.99,,,-99.99,,2013-04-19 14:11:00,
2013-04-19 14:21:00,64.0,63.0,30.00,SSW,200,20.0,-999.0,98,-99.99,,,-99.99,,2013-04-19 14:21:00,
2013-04-19 14:31:00,64.0,63.0,30.00,SSW,200,20.0,-999.0,98,-99.99,,,-99.99,,2013-04-19 14:31:00,
2013-04-19 15:00:00,59.0,59.0,29.99,South,180,16.0,-999.0,99,-99.99,,,-99.99,,2013-04-19 15:00:00,
2013-04-19 15:11:00,59.0,59.0,29.99,South,180,16.0,-999.0,99,-99.99,,,-99.99,,2013-04-19 15:11:00,
2013-04-19 15:21:00,59.0,59.0,29.99,South,180,16.0,-999.0,99,-99.99,,,-99.99,,2013-04-19 15:21:00,
2013-04-19 15:33:00,59.0,59.0,29.99,South,180,16.0,-999.0,99,-99.99,,,-99.99,,2013-04-19 15:33:00,
2013-04-19 15:42:00,59.0,59.0,29.99,South,180,16.0,-999.0,99,-99.99,,,-99.99,,2013-04-19 15:42:00,
2013-04-19 15:52:00,59.0,59.0,29.99,South,180,16.0,-999.0,99,-99.99,,,-99.99,,2013-04-19 15:52:00,
2013-04-19 16:12:00,64.0,63.0,29.97,South,190,14.0,-999.0,97,-99.99,,,-99.99,,2013-04-19 16:12:00,
2013-04-19 16:22:00,64.0,63.0,29.97,South,190,14.0,-999.0,97,-99.99,,,-99.99,,2013-04-19 16:22:00,
2013-04-19 16:32:00,64.0,63.0,29.97,South,190,14.0,-999.0,97,-99.99,,,-99.99,,2013-04-19 16:32:00,
2013-04-19 17:00:00,59.0,59.0,29.94,South,170,14.0,-999.0,98,-99.99,,,-99.99,,2013-04-19 17:00:00,
2013-04-19 17:11:00,59.0,59.0,29.94,South,170,14.0,-999.0,98,-99.99,,,-99.99,,2013-04-19 17:11:00,
2013-04-19 17:21:00,59.0,59.0,29.94,South,170,14.0,-999.0,98,-99.99,,,-99.99,,2013-04-19 17:21:00,
2013-04-19 17:32:00,59.0,59.0,29.94,South,170,14.0,-999.0,98,-99.99,,,-99.99,,2013-04-19 17:32:00,
2013-04-19 17:42:00,59.0,59.0,29.94,South,170,14.0,-999.0,98,-99.99,,,-99.99,,2013-04-19 17:42:00,
2013-04-19 17:52:00,59.0,59.0,29.94,South,170,14.0,-999.0,98,-99.99,,,-99.99,,2013-04-19 17:52:00,
2013-04-19 18:00:00,62.0,62.0,29.90,South,180,18.0,-999.0,98,-99.99,,,-99.99,,2013-04-19 18:00:00,
2013-04-19 18:13:00,62.0,62.0,29.90,South,180,18.0,-999.0,98,-99.99,,,-99.99,,2013-04-19 18:13:00,
2013-04-19 18:22:00,62.0,62.0,29.90,South,180,18.0,-999.0,98,-99.99,,,-99.99,,2013-04-19 18:22:00,
2013-04-19 18:32:00,62.0,62.0,29.90,South,180,18.0,-999.0,98,-99.99,,,-99.99,,2013-04-19 18:32:00,
2013-04-19 18:42:00,62.0,62.0,29.90,South,180,18.0,-999.0,98,-99.99,,,-99.99,,2013-04-19 18:42:00,
2013-04-19 18:52:00,62.0,62.0,29.90,South,180,18.0,-999.0,98,-99.99,,,-99.99,,2013-04-19 18:52:00,
2013-04-19 19:11:00,68.0,66.0,29.88,SSW,210,21.0,-999.0,92,-99.99,,,-99.99,,2013-04-19 19:11:00,
2013-04-19 19:21:00,68.0,66.0,29.88,SSW,210,21.0,-999.0,92,-99.99,,,-99.99,,2013-04-19 19:21:00,
2013-04-19 19:31:00,68.0,66.0,29.88,SSW,210,21.0,-999.0,92,-99.99,,,-99.99,,2013-04-19 19:31:00,
2013-04-19 20:11:00,66.0,65.0,29.85,SSW,200,18.0,-999.0,95,-99.99,,,-99.99,,2013-04-19 20:11:00,
2013-04-19 20:21:00,66.0,65.0,29.85,SSW,200,18.0,-999.0,95,-99.99,,,-99.99,,2013-04-19 20:21:00,
2013-04-19 20:31:00,66.0,65.0,29.85,SSW,200,18.0,-999.0,95,-99.99,,,-99.99,,2013-04-19 20:31:00,
2013-04-19 21:00:00,61.0,60.0,29.83,South,190,18.0,-999.0,96,-99.99,,,-99.99,,2013-04-19 21:00:00,
2013-04-19 21:11:00,61.0,60.0,29.83,South,190,18.0,-999.0,96,-99.99,,,-99.99,,2013-04-19 21:11:00,
2013-04-19 21:21:00,61.0,60.0,29.83,South,190,18.0,-999.0,96,-99.99,,,-99.99,,2013-04-19 21:21:00,
2013-04-19 21:32:00,61.0,60.0,29.83,South,190,18.0,-999.0,96,-99.99,,,-99.99,,2013-04-19 21:32:00,
2013-04-19 21:42:00,61.0,60.0,29.83,South,190,18.0,-999.0,96,-99.99,,,-99.99,,2013-04-19 21:42:00,
2013-04-19 21:52:00,61.0,60.0,29.83,South,190,18.0,-999.0,96,-99.99,,,-99.99,,2013-04-19 21:52:00,
2013-04-19 22:00:00,60.0,60.0,29.80,South,180,22.0,-999.0,99,-99.99,,,-99.99,,2013-04-19 22:00:00,
2013-04-19 22:12:00,60.0,60.0,29.80,South,180,22.0,-999.0,99,-99.99,,,-99.99,,2013-04-19 22:12:00,
2013-04-19 22:22:00,60.0,60.0,29.80,South,180,22.0,-999.0,99,-99.99,,,-99.99,,2013-04-19 22:22:00,
2013-04-19 22:33:00,60.0,60.0,29.80,South,180,22.0,-999.0,99,-99.99,,,-99.99,,2013-04-19 22:33:00,
2013-04-19 22:41:00,60.0,60.0,29.80,South,180,22.0,-999.0,99,-99.99,,,-99.99,,2013-04-19 22:41:00,
2013-04-19 22:52:00,60.0,60.0,29.80,South,180,22.0,-999.0,99,-99.99,,,-99.99,,2013-04-19 22:52:00,
2013-04-19 23:11:00,64.0,64.0,29.79,SSW,200,21.0,-999.0,99,-99.99,,,-99.99,,2013-04-19 23:11:00,
2013-04-19 23:21:00,64.0,64.0,29.79,SSW,200,21.0,-999.0,99,-99.99,,,-99.99,,2013-04-19 23:21:00,
2013-04-19 23:31:00,64.0,64.0,29.79,SSW,200,21.0,-999.0,99,-99.99,,,-99.99,,2013-04-19 23:31:00,